EYKA/KUN METAR and TAF weather

Enter ICAO airport designator
Station Type Date Time Source
EYKA METAR 2021/08/01 15:50 UTC NOAA

EYKA 011550Z 22004KT 9999 FEW066CB BKN160 24/12 Q1006


Station Type Date Time Source
EYKA Decoded METAR 2021/08/01 15:50 UTC NOAA

Kaunas, Lithuania (EYKA) 54-54N 023-55-12E
Aug 01, 2021 - 11:50 AM EDT / 2021.08.01 1550 UTC
Wind: from the SW (220 degrees) at 5 MPH (4 KT):0
Visibility: greater than 7 mile(s):0
Sky conditions: mostly cloudy
Weather: Cumulonimbus clouds observed
Temperature: 75 F (24 C)
Dew Point: 53 F (12 C)
Relative Humidity: 46%
Pressure (altimeter): 29.71 in. Hg (1006 hPa)
ob: EYKA 011550Z 22004KT 9999 FEW066CB BKN160 24/12 Q1006
cycle: 16

Station Type Date Time Source
EYKA TAF 2021/08/01 12:03 UTC NOAA

TAF EYKA 011100Z 0112/0212 VRB05KT 9000 SCT040
TEMPO 0112/0116 24015KT
BECMG 0120/0122 SCT010 BKN030
TEMPO 0122/0206 VRB30KT 1500 TSRA SQ SCT005 BKN015CB
TEMPO 0206/0212 27015KT BKN020CB

Example: see airport list